createdAt,value
2022-10-01T00:00:04.343Z,65.51
2022-10-01T00:05:07.386Z,65.48
2022-10-01T00:10:11.070Z,65.54
2022-10-01T00:15:15.177Z,65.04
2022-10-01T00:20:17.741Z,65.83
2022-10-01T00:25:19.365Z,65.76
2022-10-01T00:30:21.666Z,66.09
2022-10-01T00:35:24.452Z,65.96
2022-10-01T00:40:26.178Z,65.85
2022-10-01T00:45:27.931Z,65.75
2022-10-01T00:50:33.196Z,65.62
2022-10-01T00:55:39.833Z,65.77
2022-10-01T01:00:42.955Z,65.86
2022-10-01T01:05:46.288Z,65.98
2022-10-01T01:11:01.734Z,66.10
2022-10-01T01:16:07.412Z,65.87
2022-10-01T01:21:14.993Z,66.17
2022-10-01T01:26:48.331Z,66.42
2022-10-01T01:31:50.294Z,65.93
2022-10-01T01:37:04.659Z,66.07
2022-10-01T01:42:13.533Z,66.22
2022-10-01T01:47:16.657Z,66.33
2022-10-01T01:52:18.543Z,66.28
2022-10-01T01:57:21.215Z,66.35
2022-10-01T02:02:28.415Z,66.43
2022-10-01T02:07:30.053Z,66.71
2022-10-01T02:13:01.740Z,66.73
2022-10-01T02:18:18.799Z,67.00
2022-10-01T02:23:28.765Z,67.49
2022-10-01T02:28:33.293Z,67.25
2022-10-01T02:33:37.432Z,67.06
2022-10-01T02:38:42.160Z,67.29
2022-10-01T02:44:05.217Z,68.10
2022-10-01T02:49:06.932Z,67.79
2022-10-01T02:54:17.816Z,67.58
2022-10-01T02:59:22.608Z,67.84
2022-10-01T03:04:24.241Z,67.77
2022-10-01T03:09:26.933Z,67.79
2022-10-01T03:14:28.965Z,67.96
2022-10-01T03:19:30.603Z,67.66
2022-10-01T03:24:32.378Z,67.98
2022-10-01T03:29:34.026Z,68.00
2022-10-01T03:34:35.735Z,67.93
2022-10-01T03:39:37.491Z,68.36
2022-10-01T03:44:39.122Z,68.17
2022-10-01T03:49:40.753Z,68.26
2022-10-01T03:54:42.389Z,68.02
2022-10-01T03:59:44.075Z,68.35
2022-10-01T04:04:45.672Z,68.39
2022-10-01T04:09:47.411Z,68.24
2022-10-01T04:14:49.035Z,68.42
2022-10-01T04:19:50.661Z,68.62
2022-10-01T04:24:53.823Z,68.75
2022-10-01T04:29:55.457Z,68.69
2022-10-01T04:34:57.449Z,68.49
2022-10-01T04:40:34.615Z,68.82
2022-10-01T04:45:37.470Z,68.97
2022-10-01T04:50:39.103Z,68.84
2022-10-01T04:55:40.731Z,69.20
2022-10-01T05:00:42.523Z,69.25
2022-10-01T05:05:44.552Z,69.15
2022-10-01T05:10:46.173Z,68.85
2022-10-01T05:15:52.352Z,69.17
2022-10-01T05:20:54.177Z,69.22
2022-10-01T05:25:55.839Z,69.39
2022-10-01T05:31:03.452Z,69.55
2022-10-01T05:36:07.056Z,69.36
2022-10-01T05:41:08.919Z,69.36
2022-10-01T05:46:10.630Z,69.00
2022-10-01T05:51:15.253Z,69.13
2022-10-01T05:56:16.877Z,69.14
2022-10-01T06:01:18.490Z,69.04
2022-10-01T06:06:24.943Z,68.96
2022-10-01T06:11:27.457Z,68.83
2022-10-01T06:16:29.363Z,68.72
2022-10-01T06:21:31.937Z,68.87
2022-10-01T06:26:33.829Z,68.53
2022-10-01T06:32:13.501Z,69.20
2022-10-01T06:37:15.291Z,68.91
2022-10-01T06:42:16.883Z,68.70
2022-10-01T06:47:18.530Z,68.93
2022-10-01T06:52:38.640Z,69.09
2022-10-01T06:57:40.291Z,69.00
2022-10-01T07:02:42.046Z,69.43
2022-10-01T07:07:48.398Z,69.09
2022-10-01T07:12:51.243Z,69.63
2022-10-01T07:17:52.971Z,69.56
2022-10-01T07:22:59.007Z,69.32
2022-10-01T07:28:04.557Z,69.19
2022-10-01T07:33:06.229Z,68.82
2022-10-01T07:38:08.190Z,68.62
2022-10-01T07:43:10.065Z,68.24
2022-10-01T07:48:11.734Z,67.97
2022-10-01T07:53:13.826Z,68.08
2022-10-01T07:58:15.526Z,67.66
2022-10-01T08:03:17.125Z,67.75
2022-10-01T08:08:18.779Z,67.28
2022-10-01T08:13:24.850Z,67.43
2022-10-01T08:18:26.683Z,67.20
2022-10-01T08:23:31.309Z,67.17
2022-10-01T08:28:35.757Z,66.98
2022-10-01T08:33:38.972Z,66.36
2022-10-01T08:38:47.383Z,66.11
2022-10-01T08:43:51.318Z,65.66
2022-10-01T08:49:06.922Z,64.96
2022-10-01T08:54:31.023Z,64.84
2022-10-01T08:59:40.875Z,65.29
2022-10-01T09:04:56.772Z,66.46
2022-10-01T09:10:13.848Z,66.36
2022-10-01T09:15:25.766Z,65.77
2022-10-01T09:20:39.543Z,65.20
2022-10-01T09:25:46.102Z,64.54
2022-10-01T09:31:12.008Z,64.10
2022-10-01T09:36:26.559Z,63.38
2022-10-01T09:41:31.633Z,62.66
2022-10-01T09:46:35.712Z,61.73
2022-10-01T09:51:43.013Z,61.79
2022-10-01T09:56:51.014Z,62.17
2022-10-01T10:02:51.158Z,62.74
2022-10-01T10:08:04.273Z,62.14
2022-10-01T10:13:35.167Z,61.93
2022-10-01T10:18:40.145Z,63.20
2022-10-01T10:23:51.493Z,63.88
2022-10-01T10:28:53.415Z,63.99
2022-10-01T10:34:32.645Z,64.22
2022-10-01T10:39:42.027Z,64.11
2022-10-01T10:44:49.525Z,64.17
2022-10-01T10:49:58.597Z,64.39
2022-10-01T10:55:25.169Z,65.04
2022-10-01T11:00:36.069Z,64.00
2022-10-01T11:05:42.086Z,64.08
2022-10-01T11:11:20.734Z,63.76
2022-10-01T11:16:33.375Z,64.52
2022-10-01T11:21:50.927Z,64.60
2022-10-01T11:26:58.027Z,64.79
2022-10-01T11:32:38.252Z,63.68
2022-10-01T11:38:14.070Z,62.75
2022-10-01T11:43:34.504Z,62.47
2022-10-01T11:48:48.588Z,61.38
2022-10-01T11:53:58.275Z,60.21
2022-10-01T11:59:10.746Z,59.73
2022-10-01T12:04:25.217Z,58.66
2022-10-01T12:09:39.367Z,57.13
2022-10-01T12:14:49.074Z,57.52
2022-10-01T12:19:54.309Z,57.28
2022-10-01T12:25:01.422Z,56.71
2022-10-01T12:30:18.949Z,55.49
2022-10-01T12:35:35.851Z,54.42
2022-10-01T12:41:04.368Z,53.21
2022-10-01T12:46:30.549Z,52.72
2022-10-01T12:51:53.139Z,53.43
2022-10-01T12:57:29.058Z,53.17
2022-10-01T13:03:11.549Z,52.83
2022-10-01T13:08:18.113Z,52.88
2022-10-01T13:13:33.605Z,52.42
2022-10-01T13:18:50.761Z,51.80
2022-10-01T13:24:33.484Z,51.99
2022-10-01T13:29:55.358Z,52.75
2022-10-01T13:35:39.511Z,53.45
2022-10-01T13:40:41.594Z,53.20
2022-10-01T13:45:51.565Z,51.09
2022-10-01T13:51:15.533Z,51.14
2022-10-01T13:56:32.973Z,51.69
2022-10-01T14:01:41.587Z,52.10
2022-10-01T14:06:58.410Z,52.28
2022-10-01T14:12:32.871Z,51.72
2022-10-01T14:17:38.011Z,51.21
2022-10-01T14:23:16.098Z,50.69
2022-10-01T14:28:38.041Z,51.17
2022-10-01T14:33:40.616Z,50.78
2022-10-01T14:38:49.426Z,49.81
2022-10-01T14:43:54.301Z,49.65
2022-10-01T14:49:00.977Z,49.98
2022-10-01T14:54:04.783Z,49.56
2022-10-01T14:59:17.070Z,50.40
2022-10-01T15:04:28.321Z,51.06
2022-10-01T15:09:34.144Z,51.98
2022-10-01T15:14:37.119Z,53.21
2022-10-01T15:19:47.090Z,53.35
2022-10-01T15:24:50.548Z,54.43
2022-10-01T15:29:56.694Z,54.89
2022-10-01T15:35:02.161Z,55.57
2022-10-01T15:40:13.176Z,57.01
2022-10-01T15:45:26.058Z,57.32
2022-10-01T15:50:37.071Z,57.48
2022-10-01T15:55:50.712Z,58.10
2022-10-01T16:01:09.334Z,58.28
2022-10-01T16:06:23.982Z,58.56
2022-10-01T16:11:31.843Z,59.00
2022-10-01T16:16:33.770Z,58.54
2022-10-01T16:21:40.790Z,58.19
2022-10-01T16:26:43.561Z,58.19
2022-10-01T16:31:45.614Z,58.92
2022-10-01T16:36:47.565Z,59.58
2022-10-01T16:42:06.264Z,60.35
2022-10-01T16:47:12.602Z,60.94
2022-10-01T16:52:16.620Z,61.75
2022-10-01T16:57:18.350Z,61.97
2022-10-01T17:02:20.005Z,62.41
2022-10-01T17:07:21.719Z,62.52
2022-10-01T17:12:23.330Z,62.78
2022-10-01T17:17:24.934Z,63.22
2022-10-01T17:22:26.597Z,63.40
2022-10-01T17:27:28.241Z,63.35
2022-10-01T17:32:29.924Z,63.92
2022-10-01T17:37:31.725Z,64.21
2022-10-01T17:42:35.544Z,64.46
2022-10-01T17:47:42.041Z,64.36
2022-10-01T17:52:48.590Z,64.89
2022-10-01T17:57:52.200Z,65.16
2022-10-01T18:02:54.001Z,65.30
2022-10-01T18:07:55.639Z,65.35
2022-10-01T18:13:09.354Z,65.41
2022-10-01T18:19:51.229Z,65.41
2022-10-01T18:23:33.462Z,65.39
2022-10-01T18:28:35.164Z,65.36
2022-10-01T18:33:45.920Z,65.32
2022-10-01T18:38:52.645Z,65.13
2022-10-01T18:43:54.343Z,65.02
2022-10-01T18:49:31.477Z,65.65
2022-10-01T18:54:57.666Z,65.71
2022-10-01T18:59:59.255Z,65.66
2022-10-01T19:05:29.704Z,65.73
2022-10-01T19:11:07.034Z,65.96
2022-10-01T19:16:26.919Z,67.08
2022-10-01T19:21:52.710Z,66.61
2022-10-01T19:27:22.381Z,66.66
2022-10-01T19:32:45.523Z,67.24
2022-10-01T19:38:26.317Z,67.53
2022-10-01T19:43:38.066Z,67.97
2022-10-01T19:48:51.914Z,67.95
2022-10-01T19:54:00.243Z,68.15
2022-10-01T19:59:11.010Z,68.06
2022-10-01T20:04:21.315Z,69.37
2022-10-01T20:09:38.748Z,68.47
2022-10-01T20:15:09.027Z,68.08
2022-10-01T20:20:23.503Z,68.17
2022-10-01T20:25:44.658Z,68.49
2022-10-01T20:31:04.946Z,68.81
2022-10-01T20:36:12.011Z,68.14
2022-10-01T20:41:16.908Z,67.84
2022-10-01T20:46:35.322Z,68.06
2022-10-01T20:51:53.093Z,67.97
2022-10-01T20:57:21.259Z,67.84
2022-10-01T21:02:28.849Z,67.79
2022-10-01T21:07:36.521Z,68.11
2022-10-01T21:12:44.669Z,68.15
2022-10-01T21:18:11.325Z,68.14
2022-10-01T21:23:25.178Z,68.09
2022-10-01T21:28:29.755Z,67.87
2022-10-01T21:33:44.370Z,67.97
2022-10-01T21:39:00.210Z,68.03
2022-10-01T21:44:33.365Z,68.14
2022-10-01T21:49:57.432Z,68.83
2022-10-01T21:55:17.800Z,68.47
2022-10-01T22:00:24.894Z,68.77
2022-10-01T22:05:38.046Z,68.88
2022-10-01T22:10:45.818Z,68.93
2022-10-01T22:15:52.427Z,68.32
2022-10-01T22:20:56.370Z,68.52
2022-10-01T22:26:03.702Z,68.09
2022-10-01T22:31:10.884Z,68.18
2022-10-01T22:36:18.260Z,68.00
2022-10-01T22:41:31.559Z,67.80
2022-10-01T22:47:19.273Z,67.60
2022-10-01T22:52:33.237Z,67.75
2022-10-01T22:57:53.082Z,67.41
2022-10-01T23:03:13.480Z,67.38
2022-10-01T23:08:32.375Z,67.59
2022-10-01T23:13:33.943Z,67.78
2022-10-01T23:18:57.494Z,68.14
2022-10-01T23:24:18.093Z,68.50
2022-10-01T23:29:45.989Z,68.83
2022-10-01T23:35:04.517Z,68.92
2022-10-01T23:40:11.411Z,69.32
2022-10-01T23:45:24.137Z,69.33
2022-10-01T23:50:39.950Z,69.54
2022-10-01T23:56:08.750Z,69.62
